aviador You're here:

KHDN Decoded Metar

HAYDEN/YAMPA in CO, USA
Report Time2018-02-25 21:56:00
UTC Time2018-02-25 23:46:59
Flight Rules Old
Wind290° at 08 kt
W.Decomp.*RWY 28: 8.0 kt HW 0 kt LCW
W.Rank290° ranks 9
Current wind is below 290° avg. (8.6)
Visibility9999 m
Phenomena:N/A
Clouds:N/A
Expected CloudBase > 4,800 ft AGL from Temp-Dew spread
CeilingNone
Temp-3°C (ISA -5)
Dew Point-15°C (39% RH)
AAT-9.3°C
QNH1018 hPa
Density Alt5,879 ft
Elevation6,601 ft
Report Wrong Elevation
Raw Report
KHDN 252156Z AUTO 29008KT 10SM CLR M03/M15 A3006 RMK AO2 SLP231
T10281150 FZRANO=

Extra information for KHDN:More info

Metar Taf Metar & Taf Last 4 Metars F.Rules Stats Wind Profile Meteogram Temp Stats Airport Information Weather charts Add Link Nearby VenuesMetar ALERT Operation Metar Decoded Social comments

AIRNAV info for KHDN